sensor_id;sensor_type;location;lat;lon;timestamp;P1;durP1;ratioP1;P2;durP2;ratioP2
68050;SDS011;54839;51.364;7.246;2023-05-18T00:01:34;11.73;;;4.13;;
68050;SDS011;54839;51.364;7.246;2023-05-18T00:03:59;6.77;;;3.23;;
68050;SDS011;54839;51.364;7.246;2023-05-18T00:06:25;6.90;;;3.73;;
68050;SDS011;54839;51.364;7.246;2023-05-18T00:08:51;19.27;;;3.50;;
68050;SDS011;54839;51.364;7.246;2023-05-18T00:11:17;8.43;;;3.60;;
68050;SDS011;54839;51.364;7.246;2023-05-18T00:13:42;6.93;;;2.93;;
68050;SDS011;54839;51.364;7.246;2023-05-18T00:16:08;6.30;;;2.53;;
68050;SDS011;54839;51.364;7.246;2023-05-18T00:18:36;11.93;;;4.10;;
68050;SDS011;54839;51.364;7.246;2023-05-18T00:21:01;5.80;;;3.67;;
68050;SDS011;54839;51.364;7.246;2023-05-18T00:23:27;9.47;;;2.97;;
68050;SDS011;54839;51.364;7.246;2023-05-18T00:25:58;4.57;;;2.90;;
68050;SDS011;54839;51.364;7.246;2023-05-18T00:28:24;7.93;;;3.70;;
68050;SDS011;54839;51.364;7.246;2023-05-18T00:30:50;7.73;;;3.93;;
68050;SDS011;54839;51.364;7.246;2023-05-18T00:33:17;8.23;;;3.17;;
68050;SDS011;54839;51.364;7.246;2023-05-18T00:35:42;6.30;;;3.20;;
68050;SDS011;54839;51.364;7.246;2023-05-18T00:38:08;8.83;;;3.23;;
68050;SDS011;54839;51.364;7.246;2023-05-18T00:40:33;5.63;;;3.47;;
68050;SDS011;54839;51.364;7.246;2023-05-18T00:42:59;9.80;;;4.00;;
68050;SDS011;54839;51.364;7.246;2023-05-18T00:45:25;5.27;;;3.30;;
68050;SDS011;54839;51.364;7.246;2023-05-18T00:47:51;10.10;;;3.20;;
68050;SDS011;54839;51.364;7.246;2023-05-18T00:50:17;5.17;;;3.10;;
68050;SDS011;54839;51.364;7.246;2023-05-18T00:52:43;5.57;;;3.27;;
68050;SDS011;54839;51.364;7.246;2023-05-18T00:55:10;4.10;;;3.10;;
68050;SDS011;54839;51.364;7.246;2023-05-18T00:57:36;6.47;;;3.13;;
68050;SDS011;54839;51.364;7.246;2023-05-18T01:00:02;8.87;;;2.97;;
68050;SDS011;54839;51.364;7.246;2023-05-18T01:02:31;5.73;;;3.03;;
68050;SDS011;54839;51.364;7.246;2023-05-18T01:04:56;6.60;;;3.10;;
68050;SDS011;54839;51.364;7.246;2023-05-18T01:07:24;6.23;;;2.90;;
68050;SDS011;54839;51.364;7.246;2023-05-18T01:09:51;5.87;;;3.20;;
68050;SDS011;54839;51.364;7.246;2023-05-18T01:12:20;5.90;;;3.40;;
68050;SDS011;54839;51.364;7.246;2023-05-18T01:14:53;7.30;;;3.50;;
68050;SDS011;54839;51.364;7.246;2023-05-18T01:22:49;5.50;;;3.27;;
68050;SDS011;54839;51.364;7.246;2023-05-18T01:28:07;8.30;;;3.03;;
68050;SDS011;54839;51.364;7.246;2023-05-18T01:30:38;5.53;;;3.43;;
68050;SDS011;54839;51.364;7.246;2023-05-18T01:33:09;6.30;;;3.33;;
68050;SDS011;54839;51.364;7.246;2023-05-18T01:35:35;5.47;;;3.47;;
68050;SDS011;54839;51.364;7.246;2023-05-18T01:38:02;6.00;;;2.93;;
68050;SDS011;54839;51.364;7.246;2023-05-18T01:40:32;5.40;;;3.10;;
68050;SDS011;54839;51.364;7.246;2023-05-18T01:43:07;4.57;;;3.07;;
68050;SDS011;54839;51.364;7.246;2023-05-18T01:45:35;7.77;;;3.77;;
68050;SDS011;54839;51.364;7.246;2023-05-18T01:48:04;14.17;;;3.20;;
68050;SDS011;54839;51.364;7.246;2023-05-18T01:50:35;8.20;;;3.40;;
68050;SDS011;54839;51.364;7.246;2023-05-18T01:53:07;7.13;;;4.00;;
68050;SDS011;54839;51.364;7.246;2023-05-18T01:55:33;8.17;;;4.10;;
68050;SDS011;54839;51.364;7.246;2023-05-18T01:58:00;6.53;;;3.63;;
68050;SDS011;54839;51.364;7.246;2023-05-18T02:00:28;9.23;;;3.20;;
68050;SDS011;54839;51.364;7.246;2023-05-18T02:02:54;8.67;;;3.73;;
68050;SDS011;54839;51.364;7.246;2023-05-18T02:05:20;7.90;;;5.53;;
68050;SDS011;54839;51.364;7.246;2023-05-18T02:07:45;7.97;;;3.60;;
68050;SDS011;54839;51.364;7.246;2023-05-18T02:10:11;6.60;;;3.10;;
68050;SDS011;54839;51.364;7.246;2023-05-18T02:12:37;8.77;;;4.00;;
68050;SDS011;54839;51.364;7.246;2023-05-18T02:15:03;7.77;;;4.50;;
68050;SDS011;54839;51.364;7.246;2023-05-18T02:17:31;4.30;;;3.37;;
68050;SDS011;54839;51.364;7.246;2023-05-18T02:19:57;8.07;;;5.10;;
68050;SDS011;54839;51.364;7.246;2023-05-18T02:22:22;4.13;;;3.53;;
68050;SDS011;54839;51.364;7.246;2023-05-18T02:24:48;8.20;;;4.13;;
68050;SDS011;54839;51.364;7.246;2023-05-18T02:27:13;8.67;;;3.27;;
68050;SDS011;54839;51.364;7.246;2023-05-18T02:29:39;8.03;;;3.77;;
68050;SDS011;54839;51.364;7.246;2023-05-18T02:32:05;12.57;;;3.80;;
68050;SDS011;54839;51.364;7.246;2023-05-18T02:34:31;6.40;;;3.47;;
68050;SDS011;54839;51.364;7.246;2023-05-18T02:36:57;7.67;;;4.17;;
68050;SDS011;54839;51.364;7.246;2023-05-18T02:39:27;4.20;;;2.80;;
68050;SDS011;54839;51.364;7.246;2023-05-18T02:41:53;10.73;;;4.30;;
68050;SDS011;54839;51.364;7.246;2023-05-18T02:44:18;5.30;;;3.10;;
68050;SDS011;54839;51.364;7.246;2023-05-18T02:46:44;9.40;;;4.33;;
68050;SDS011;54839;51.364;7.246;2023-05-18T02:49:09;8.73;;;4.40;;
68050;SDS011;54839;51.364;7.246;2023-05-18T02:51:35;9.33;;;4.23;;
68050;SDS011;54839;51.364;7.246;2023-05-18T02:54:01;5.20;;;4.03;;
68050;SDS011;54839;51.364;7.246;2023-05-18T02:56:27;8.93;;;3.40;;
68050;SDS011;54839;51.364;7.246;2023-05-18T02:58:52;5.77;;;3.93;;
68050;SDS011;54839;51.364;7.246;2023-05-18T03:01:21;5.53;;;3.33;;
68050;SDS011;54839;51.364;7.246;2023-05-18T03:03:51;5.70;;;3.37;;
68050;SDS011;54839;51.364;7.246;2023-05-18T03:06:23;6.40;;;3.17;;
68050;SDS011;54839;51.364;7.246;2023-05-18T03:08:50;8.30;;;3.30;;
68050;SDS011;54839;51.364;7.246;2023-05-18T03:11:19;5.13;;;3.97;;
68050;SDS011;54839;51.364;7.246;2023-05-18T03:13:46;7.37;;;3.70;;
68050;SDS011;54839;51.364;7.246;2023-05-18T03:16:12;6.83;;;3.60;;
68050;SDS011;54839;51.364;7.246;2023-05-18T03:18:38;4.40;;;3.40;;
68050;SDS011;54839;51.364;7.246;2023-05-18T03:21:04;6.43;;;3.90;;
68050;SDS011;54839;51.364;7.246;2023-05-18T03:23:29;5.37;;;4.10;;
68050;SDS011;54839;51.364;7.246;2023-05-18T03:25:55;8.97;;;3.23;;
68050;SDS011;54839;51.364;7.246;2023-05-18T03:28:21;8.77;;;4.30;;
68050;SDS011;54839;51.364;7.246;2023-05-18T03:30:46;6.77;;;3.60;;
68050;SDS011;54839;51.364;7.246;2023-05-18T03:33:12;6.17;;;3.80;;
68050;SDS011;54839;51.364;7.246;2023-05-18T03:35:38;3.90;;;3.50;;
68050;SDS011;54839;51.364;7.246;2023-05-18T03:38:05;6.50;;;3.50;;
68050;SDS011;54839;51.364;7.246;2023-05-18T03:40:31;8.43;;;4.17;;
68050;SDS011;54839;51.364;7.246;2023-05-18T03:42:57;9.50;;;4.17;;
68050;SDS011;54839;51.364;7.246;2023-05-18T03:45:22;8.73;;;3.93;;
68050;SDS011;54839;51.364;7.246;2023-05-18T03:47:48;7.63;;;4.33;;
68050;SDS011;54839;51.364;7.246;2023-05-18T03:50:14;13.30;;;4.23;;
68050;SDS011;54839;51.364;7.246;2023-05-18T03:52:42;6.30;;;3.43;;
68050;SDS011;54839;51.364;7.246;2023-05-18T03:55:08;7.67;;;3.83;;
68050;SDS011;54839;51.364;7.246;2023-05-18T03:57:35;7.80;;;4.40;;
68050;SDS011;54839;51.364;7.246;2023-05-18T04:00:01;7.57;;;3.37;;
68050;SDS011;54839;51.364;7.246;2023-05-18T04:02:36;6.73;;;3.10;;
68050;SDS011;54839;51.364;7.246;2023-05-18T04:05:02;8.73;;;3.77;;
68050;SDS011;54839;51.364;7.246;2023-05-18T04:07:28;8.03;;;4.20;;
68050;SDS011;54839;51.364;7.246;2023-05-18T04:09:54;6.47;;;3.93;;
68050;SDS011;54839;51.364;7.246;2023-05-18T04:12:20;10.67;;;4.20;;
68050;SDS011;54839;51.364;7.246;2023-05-18T04:14:46;6.57;;;3.93;;
68050;SDS011;54839;51.364;7.246;2023-05-18T04:17:18;8.47;;;3.87;;
68050;SDS011;54839;51.364;7.246;2023-05-18T04:19:47;8.20;;;4.70;;
68050;SDS011;54839;51.364;7.246;2023-05-18T04:22:13;8.70;;;4.33;;
68050;SDS011;54839;51.364;7.246;2023-05-18T04:24:40;14.13;;;4.40;;
68050;SDS011;54839;51.364;7.246;2023-05-18T04:27:06;6.10;;;4.73;;
68050;SDS011;54839;51.364;7.246;2023-05-18T04:29:32;8.03;;;5.20;;
68050;SDS011;54839;51.364;7.246;2023-05-18T04:32:03;8.87;;;4.80;;
68050;SDS011;54839;51.364;7.246;2023-05-18T04:34:31;10.23;;;5.00;;
68050;SDS011;54839;51.364;7.246;2023-05-18T04:36:59;7.63;;;5.43;;
68050;SDS011;54839;51.364;7.246;2023-05-18T04:39:26;11.40;;;5.77;;
68050;SDS011;54839;51.364;7.246;2023-05-18T04:41:52;8.53;;;5.10;;
68050;SDS011;54839;51.364;7.246;2023-05-18T04:44:31;12.10;;;5.90;;
68050;SDS011;54839;51.364;7.246;2023-05-18T04:47:01;7.40;;;4.77;;
68050;SDS011;54839;51.364;7.246;2023-05-18T04:49:27;9.57;;;5.20;;
68050;SDS011;54839;51.364;7.246;2023-05-18T04:51:53;10.40;;;6.00;;
68050;SDS011;54839;51.364;7.246;2023-05-18T04:54:26;13.97;;;5.03;;
68050;SDS011;54839;51.364;7.246;2023-05-18T04:56:54;9.37;;;5.37;;
68050;SDS011;54839;51.364;7.246;2023-05-18T04:59:20;7.40;;;5.60;;
68050;SDS011;54839;51.364;7.246;2023-05-18T05:01:50;7.50;;;5.30;;
68050;SDS011;54839;51.364;7.246;2023-05-18T05:04:16;9.20;;;5.80;;
68050;SDS011;54839;51.364;7.246;2023-05-18T05:06:44;13.60;;;5.80;;
68050;SDS011;54839;51.364;7.246;2023-05-18T05:09:09;8.50;;;6.00;;
68050;SDS011;54839;51.364;7.246;2023-05-18T05:11:37;13.17;;;5.53;;
68050;SDS011;54839;51.364;7.246;2023-05-18T05:14:03;11.57;;;5.37;;
68050;SDS011;54839;51.364;7.246;2023-05-18T05:16:28;9.37;;;5.30;;
68050;SDS011;54839;51.364;7.246;2023-05-18T05:18:54;10.23;;;6.13;;
68050;SDS011;54839;51.364;7.246;2023-05-18T05:21:20;11.43;;;6.83;;
68050;SDS011;54839;51.364;7.246;2023-05-18T05:23:45;8.93;;;5.70;;
68050;SDS011;54839;51.364;7.246;2023-05-18T05:26:11;10.00;;;6.13;;
68050;SDS011;54839;51.364;7.246;2023-05-18T05:28:36;13.10;;;6.63;;
68050;SDS011;54839;51.364;7.246;2023-05-18T05:31:02;6.73;;;5.37;;
68050;SDS011;54839;51.364;7.246;2023-05-18T05:33:27;10.40;;;5.30;;
68050;SDS011;54839;51.364;7.246;2023-05-18T05:35:53;10.93;;;5.83;;
68050;SDS011;54839;51.364;7.246;2023-05-18T05:38:18;7.23;;;6.33;;
68050;SDS011;54839;51.364;7.246;2023-05-18T05:40:44;7.70;;;5.90;;
68050;SDS011;54839;51.364;7.246;2023-05-18T05:43:10;11.87;;;5.50;;
68050;SDS011;54839;51.364;7.246;2023-05-18T05:45:35;12.77;;;5.77;;
68050;SDS011;54839;51.364;7.246;2023-05-18T05:48:01;16.10;;;7.13;;
68050;SDS011;54839;51.364;7.246;2023-05-18T05:50:26;7.53;;;6.80;;
68050;SDS011;54839;51.364;7.246;2023-05-18T05:52:52;13.73;;;6.10;;
68050;SDS011;54839;51.364;7.246;2023-05-18T05:55:18;7.53;;;5.00;;
68050;SDS011;54839;51.364;7.246;2023-05-18T05:57:43;14.53;;;6.50;;
68050;SDS011;54839;51.364;7.246;2023-05-18T06:00:12;7.87;;;5.40;;
68050;SDS011;54839;51.364;7.246;2023-05-18T06:02:38;15.00;;;5.73;;
68050;SDS011;54839;51.364;7.246;2023-05-18T06:05:05;9.90;;;5.90;;
68050;SDS011;54839;51.364;7.246;2023-05-18T06:07:31;11.07;;;6.27;;
68050;SDS011;54839;51.364;7.246;2023-05-18T06:09:57;15.43;;;6.60;;
68050;SDS011;54839;51.364;7.246;2023-05-18T06:12:22;10.33;;;5.17;;
68050;SDS011;54839;51.364;7.246;2023-05-18T06:14:48;8.83;;;6.50;;
68050;SDS011;54839;51.364;7.246;2023-05-18T06:17:13;12.17;;;5.40;;
68050;SDS011;54839;51.364;7.246;2023-05-18T06:19:39;7.57;;;5.43;;
68050;SDS011;54839;51.364;7.246;2023-05-18T06:22:05;14.97;;;5.60;;
68050;SDS011;54839;51.364;7.246;2023-05-18T06:24:30;12.83;;;6.63;;
68050;SDS011;54839;51.364;7.246;2023-05-18T06:26:56;13.10;;;5.53;;
68050;SDS011;54839;51.364;7.246;2023-05-18T06:29:21;11.20;;;5.57;;
68050;SDS011;54839;51.364;7.246;2023-05-18T06:31:47;8.03;;;5.47;;
68050;SDS011;54839;51.364;7.246;2023-05-18T06:34:12;11.77;;;5.00;;
68050;SDS011;54839;51.364;7.246;2023-05-18T06:36:38;13.73;;;5.27;;
68050;SDS011;54839;51.364;7.246;2023-05-18T06:39:03;16.37;;;5.20;;
68050;SDS011;54839;51.364;7.246;2023-05-18T06:41:29;11.03;;;4.93;;
68050;SDS011;54839;51.364;7.246;2023-05-18T06:43:55;13.53;;;4.87;;
68050;SDS011;54839;51.364;7.246;2023-05-18T06:46:24;9.03;;;4.87;;
68050;SDS011;54839;51.364;7.246;2023-05-18T06:48:53;10.33;;;4.90;;
68050;SDS011;54839;51.364;7.246;2023-05-18T06:51:18;11.00;;;4.90;;
68050;SDS011;54839;51.364;7.246;2023-05-18T06:53:44;8.97;;;4.70;;
68050;SDS011;54839;51.364;7.246;2023-05-18T06:56:10;18.63;;;6.00;;
68050;SDS011;54839;51.364;7.246;2023-05-18T06:58:37;13.10;;;5.63;;
68050;SDS011;54839;51.364;7.246;2023-05-18T07:01:06;8.23;;;4.53;;
68050;SDS011;54839;51.364;7.246;2023-05-18T07:03:32;8.23;;;4.97;;
68050;SDS011;54839;51.364;7.246;2023-05-18T07:05:58;7.40;;;5.03;;
68050;SDS011;54839;51.364;7.246;2023-05-18T07:08:23;15.60;;;5.07;;
68050;SDS011;54839;51.364;7.246;2023-05-18T07:10:49;11.00;;;5.67;;
68050;SDS011;54839;51.364;7.246;2023-05-18T07:13:15;7.23;;;3.80;;
68050;SDS011;54839;51.364;7.246;2023-05-18T07:15:41;7.13;;;4.50;;
68050;SDS011;54839;51.364;7.246;2023-05-18T07:18:07;9.30;;;5.90;;
68050;SDS011;54839;51.364;7.246;2023-05-18T07:20:32;9.27;;;4.60;;
68050;SDS011;54839;51.364;7.246;2023-05-18T07:22:58;14.40;;;5.20;;
68050;SDS011;54839;51.364;7.246;2023-05-18T07:25:23;10.00;;;4.00;;
68050;SDS011;54839;51.364;7.246;2023-05-18T07:27:49;11.80;;;4.27;;
68050;SDS011;54839;51.364;7.246;2023-05-18T07:30:18;10.80;;;4.47;;
68050;SDS011;54839;51.364;7.246;2023-05-18T07:32:44;11.53;;;5.10;;
68050;SDS011;54839;51.364;7.246;2023-05-18T07:35:10;8.77;;;4.30;;
68050;SDS011;54839;51.364;7.246;2023-05-18T07:37:35;8.57;;;4.23;;
68050;SDS011;54839;51.364;7.246;2023-05-18T07:40:01;10.50;;;4.43;;
68050;SDS011;54839;51.364;7.246;2023-05-18T07:42:28;11.47;;;4.10;;
68050;SDS011;54839;51.364;7.246;2023-05-18T07:44:54;6.13;;;3.20;;
68050;SDS011;54839;51.364;7.246;2023-05-18T07:47:20;14.10;;;3.50;;
68050;SDS011;54839;51.364;7.246;2023-05-18T07:49:46;11.17;;;4.03;;
68050;SDS011;54839;51.364;7.246;2023-05-18T07:52:12;7.80;;;3.20;;
68050;SDS011;54839;51.364;7.246;2023-05-18T07:54:37;14.40;;;4.50;;
68050;SDS011;54839;51.364;7.246;2023-05-18T07:57:03;15.53;;;4.40;;
68050;SDS011;54839;51.364;7.246;2023-05-18T07:59:29;13.70;;;3.63;;
68050;SDS011;54839;51.364;7.246;2023-05-18T08:01:55;6.07;;;3.10;;
68050;SDS011;54839;51.364;7.246;2023-05-18T08:04:22;11.70;;;4.77;;
68050;SDS011;54839;51.364;7.246;2023-05-18T08:06:48;8.07;;;4.50;;
68050;SDS011;54839;51.364;7.246;2023-05-18T08:09:14;11.83;;;4.30;;
68050;SDS011;54839;51.364;7.246;2023-05-18T08:11:40;10.57;;;5.50;;
68050;SDS011;54839;51.364;7.246;2023-05-18T08:14:07;6.00;;;4.20;;
68050;SDS011;54839;51.364;7.246;2023-05-18T08:16:32;6.90;;;4.17;;
68050;SDS011;54839;51.364;7.246;2023-05-18T08:19:01;7.80;;;3.90;;
68050;SDS011;54839;51.364;7.246;2023-05-18T08:21:27;7.10;;;4.20;;
68050;SDS011;54839;51.364;7.246;2023-05-18T08:23:53;8.30;;;3.83;;
68050;SDS011;54839;51.364;7.246;2023-05-18T08:26:19;13.90;;;5.10;;
68050;SDS011;54839;51.364;7.246;2023-05-18T08:28:45;12.53;;;4.33;;
68050;SDS011;54839;51.364;7.246;2023-05-18T08:31:12;8.07;;;3.80;;
68050;SDS011;54839;51.364;7.246;2023-05-18T08:33:38;8.93;;;5.20;;
68050;SDS011;54839;51.364;7.246;2023-05-18T08:36:04;8.73;;;4.40;;
68050;SDS011;54839;51.364;7.246;2023-05-18T08:38:30;6.07;;;3.70;;
68050;SDS011;54839;51.364;7.246;2023-05-18T08:41:14;9.27;;;4.60;;
68050;SDS011;54839;51.364;7.246;2023-05-18T08:43:53;6.70;;;4.27;;
68050;SDS011;54839;51.364;7.246;2023-05-18T08:46:26;6.27;;;4.30;;
68050;SDS011;54839;51.364;7.246;2023-05-18T08:49:00;10.87;;;4.50;;
68050;SDS011;54839;51.364;7.246;2023-05-18T08:51:28;15.23;;;4.67;;
68050;SDS011;54839;51.364;7.246;2023-05-18T08:53:57;8.77;;;4.20;;
68050;SDS011;54839;51.364;7.246;2023-05-18T08:56:24;7.07;;;3.67;;
68050;SDS011;54839;51.364;7.246;2023-05-18T08:58:55;7.33;;;4.03;;
68050;SDS011;54839;51.364;7.246;2023-05-18T09:01:23;12.20;;;4.00;;
68050;SDS011;54839;51.364;7.246;2023-05-18T09:03:52;18.93;;;4.50;;
68050;SDS011;54839;51.364;7.246;2023-05-18T09:06:20;8.10;;;4.00;;
68050;SDS011;54839;51.364;7.246;2023-05-18T09:08:48;8.77;;;4.10;;
68050;SDS011;54839;51.364;7.246;2023-05-18T09:11:18;12.60;;;3.87;;
68050;SDS011;54839;51.364;7.246;2023-05-18T09:13:45;13.37;;;4.20;;
68050;SDS011;54839;51.364;7.246;2023-05-18T09:16:14;8.17;;;5.23;;
68050;SDS011;54839;51.364;7.246;2023-05-18T09:18:40;7.50;;;3.70;;
68050;SDS011;54839;51.364;7.246;2023-05-18T09:21:05;10.47;;;5.17;;
68050;SDS011;54839;51.364;7.246;2023-05-18T09:23:32;6.00;;;2.90;;
68050;SDS011;54839;51.364;7.246;2023-05-18T09:25:57;9.70;;;3.50;;
68050;SDS011;54839;51.364;7.246;2023-05-18T09:28:45;13.53;;;3.67;;
68050;SDS011;54839;51.364;7.246;2023-05-18T09:31:16;8.60;;;3.77;;
68050;SDS011;54839;51.364;7.246;2023-05-18T09:33:43;9.33;;;4.10;;
68050;SDS011;54839;51.364;7.246;2023-05-18T09:36:10;11.70;;;3.43;;
68050;SDS011;54839;51.364;7.246;2023-05-18T09:38:36;9.33;;;4.10;;
68050;SDS011;54839;51.364;7.246;2023-05-18T09:41:09;8.40;;;3.93;;
68050;SDS011;54839;51.364;7.246;2023-05-18T09:43:36;6.93;;;4.20;;
68050;SDS011;54839;51.364;7.246;2023-05-18T09:46:06;7.20;;;3.70;;
68050;SDS011;54839;51.364;7.246;2023-05-18T09:48:34;6.27;;;3.60;;
68050;SDS011;54839;51.364;7.246;2023-05-18T09:51:01;9.13;;;4.27;;
68050;SDS011;54839;51.364;7.246;2023-05-18T09:53:28;4.87;;;3.70;;
68050;SDS011;54839;51.364;7.246;2023-05-18T09:55:53;12.40;;;4.73;;
68050;SDS011;54839;51.364;7.246;2023-05-18T09:58:19;7.77;;;3.83;;
68050;SDS011;54839;51.364;7.246;2023-05-18T10:00:48;12.90;;;4.00;;
68050;SDS011;54839;51.364;7.246;2023-05-18T10:03:21;6.50;;;3.67;;
68050;SDS011;54839;51.364;7.246;2023-05-18T10:05:48;9.03;;;3.53;;
68050;SDS011;54839;51.364;7.246;2023-05-18T10:08:14;13.07;;;3.73;;
68050;SDS011;54839;51.364;7.246;2023-05-18T10:10:44;10.30;;;4.00;;
68050;SDS011;54839;51.364;7.246;2023-05-18T10:13:12;10.17;;;3.73;;
68050;SDS011;54839;51.364;7.246;2023-05-18T10:15:44;12.47;;;4.07;;
68050;SDS011;54839;51.364;7.246;2023-05-18T10:18:11;4.77;;;2.83;;
68050;SDS011;54839;51.364;7.246;2023-05-18T10:20:37;10.23;;;4.20;;
68050;SDS011;54839;51.364;7.246;2023-05-18T10:23:04;8.63;;;4.03;;
68050;SDS011;54839;51.364;7.246;2023-05-18T10:25:31;14.50;;;4.27;;
68050;SDS011;54839;51.364;7.246;2023-05-18T10:27:59;13.33;;;3.97;;
68050;SDS011;54839;51.364;7.246;2023-05-18T10:30:28;9.87;;;4.60;;
68050;SDS011;54839;51.364;7.246;2023-05-18T10:32:55;9.20;;;3.93;;
68050;SDS011;54839;51.364;7.246;2023-05-18T10:35:23;7.03;;;4.23;;
68050;SDS011;54839;51.364;7.246;2023-05-18T10:37:52;11.63;;;4.33;;
68050;SDS011;54839;51.364;7.246;2023-05-18T10:40:21;9.87;;;3.37;;
68050;SDS011;54839;51.364;7.246;2023-05-18T10:42:49;8.67;;;3.67;;
68050;SDS011;54839;51.364;7.246;2023-05-18T10:45:17;7.23;;;4.97;;
68050;SDS011;54839;51.364;7.246;2023-05-18T10:47:43;10.50;;;2.90;;
68050;SDS011;54839;51.364;7.246;2023-05-18T10:50:09;9.10;;;3.47;;
68050;SDS011;54839;51.364;7.246;2023-05-18T10:52:36;6.47;;;3.73;;
68050;SDS011;54839;51.364;7.246;2023-05-18T10:55:02;11.90;;;3.83;;
68050;SDS011;54839;51.364;7.246;2023-05-18T10:57:33;11.10;;;4.20;;
68050;SDS011;54839;51.364;7.246;2023-05-18T11:00:04;9.50;;;4.40;;
68050;SDS011;54839;51.364;7.246;2023-05-18T11:02:33;9.50;;;4.90;;
68050;SDS011;54839;51.364;7.246;2023-05-18T11:04:59;9.37;;;4.30;;
68050;SDS011;54839;51.364;7.246;2023-05-18T11:07:29;8.53;;;4.17;;
68050;SDS011;54839;51.364;7.246;2023-05-18T11:09:58;5.10;;;3.30;;
68050;SDS011;54839;51.364;7.246;2023-05-18T11:12:25;7.00;;;3.60;;
68050;SDS011;54839;51.364;7.246;2023-05-18T11:14:52;8.43;;;4.07;;
68050;SDS011;54839;51.364;7.246;2023-05-18T11:17:22;9.17;;;3.60;;
68050;SDS011;54839;51.364;7.246;2023-05-18T11:22:46;11.20;;;4.53;;
68050;SDS011;54839;51.364;7.246;2023-05-18T11:27:56;15.07;;;4.63;;
68050;SDS011;54839;51.364;7.246;2023-05-18T11:36:04;8.67;;;3.23;;
68050;SDS011;54839;51.364;7.246;2023-05-18T11:41:26;7.40;;;3.20;;
68050;SDS011;54839;51.364;7.246;2023-05-18T11:44:14;11.00;;;4.10;;
68050;SDS011;54839;51.364;7.246;2023-05-18T11:46:54;11.97;;;4.13;;
68050;SDS011;54839;51.364;7.246;2023-05-18T11:50:04;6.50;;;3.30;;
68050;SDS011;54839;51.364;7.246;2023-05-18T11:52:21;8.50;;;2.87;;
68050;SDS011;54839;51.364;7.246;2023-05-18T11:57:16;10.63;;;4.03;;
68050;SDS011;54839;51.364;7.246;2023-05-18T11:59:43;12.07;;;4.07;;
68050;SDS011;54839;51.364;7.246;2023-05-18T12:02:11;9.47;;;3.30;;
68050;SDS011;54839;51.364;7.246;2023-05-18T12:04:45;6.20;;;3.20;;
68050;SDS011;54839;51.364;7.246;2023-05-18T12:07:14;8.33;;;3.70;;
68050;SDS011;54839;51.364;7.246;2023-05-18T12:09:41;8.93;;;4.00;;
68050;SDS011;54839;51.364;7.246;2023-05-18T12:12:08;3.70;;;3.13;;
68050;SDS011;54839;51.364;7.246;2023-05-18T12:14:35;11.53;;;4.03;;
68050;SDS011;54839;51.364;7.246;2023-05-18T12:17:02;8.97;;;3.60;;
68050;SDS011;54839;51.364;7.246;2023-05-18T12:19:29;9.23;;;3.33;;
68050;SDS011;54839;51.364;7.246;2023-05-18T12:22:01;8.50;;;3.17;;
68050;SDS011;54839;51.364;7.246;2023-05-18T12:24:28;8.13;;;3.70;;
68050;SDS011;54839;51.364;7.246;2023-05-18T12:26:54;11.97;;;4.07;;
68050;SDS011;54839;51.364;7.246;2023-05-18T12:29:20;7.83;;;4.20;;
68050;SDS011;54839;51.364;7.246;2023-05-18T12:31:46;6.97;;;3.37;;
68050;SDS011;54839;51.364;7.246;2023-05-18T12:34:13;5.77;;;3.30;;
68050;SDS011;54839;51.364;7.246;2023-05-18T12:36:39;6.37;;;3.20;;
68050;SDS011;54839;51.364;7.246;2023-05-18T12:39:07;6.87;;;3.10;;
68050;SDS011;54839;51.364;7.246;2023-05-18T12:41:33;7.03;;;3.10;;
68050;SDS011;54839;51.364;7.246;2023-05-18T12:43:58;7.20;;;3.27;;
68050;SDS011;54839;51.364;7.246;2023-05-18T12:46:24;6.03;;;2.77;;
68050;SDS011;54839;51.364;7.246;2023-05-18T12:48:57;9.33;;;2.77;;
68050;SDS011;54839;51.364;7.246;2023-05-18T12:51:25;13.37;;;3.57;;
68050;SDS011;54839;51.364;7.246;2023-05-18T12:54:00;3.70;;;2.97;;
68050;SDS011;54839;51.364;7.246;2023-05-18T12:56:26;5.60;;;3.50;;
68050;SDS011;54839;51.364;7.246;2023-05-18T12:58:59;7.20;;;3.13;;
68050;SDS011;54839;51.364;7.246;2023-05-18T13:01:28;7.40;;;3.20;;
68050;SDS011;54839;51.364;7.246;2023-05-18T13:03:55;16.60;;;5.10;;
68050;SDS011;54839;51.364;7.246;2023-05-18T13:06:22;4.70;;;2.17;;
68050;SDS011;54839;51.364;7.246;2023-05-18T13:08:47;8.50;;;3.93;;
68050;SDS011;54839;51.364;7.246;2023-05-18T13:11:13;5.90;;;2.60;;
68050;SDS011;54839;51.364;7.246;2023-05-18T13:16:27;5.37;;;2.70;;
68050;SDS011;54839;51.364;7.246;2023-05-18T13:18:54;6.83;;;3.33;;
68050;SDS011;54839;51.364;7.246;2023-05-18T13:21:21;7.73;;;2.60;;
68050;SDS011;54839;51.364;7.246;2023-05-18T13:23:46;7.57;;;3.10;;
68050;SDS011;54839;51.364;7.246;2023-05-18T13:26:12;7.70;;;2.70;;
68050;SDS011;54839;51.364;7.246;2023-05-18T13:28:38;7.00;;;3.20;;
68050;SDS011;54839;51.364;7.246;2023-05-18T13:31:05;7.33;;;3.17;;
68050;SDS011;54839;51.364;7.246;2023-05-18T13:33:30;7.97;;;3.00;;
68050;SDS011;54839;51.364;7.246;2023-05-18T13:35:56;7.63;;;2.37;;
68050;SDS011;54839;51.364;7.246;2023-05-18T13:38:21;4.27;;;1.97;;
68050;SDS011;54839;51.364;7.246;2023-05-18T13:40:47;7.57;;;2.30;;
68050;SDS011;54839;51.364;7.246;2023-05-18T13:43:12;6.20;;;2.97;;
68050;SDS011;54839;51.364;7.246;2023-05-18T13:45:38;6.77;;;2.70;;
68050;SDS011;54839;51.364;7.246;2023-05-18T13:48:04;5.23;;;2.43;;
68050;SDS011;54839;51.364;7.246;2023-05-18T13:50:33;4.67;;;3.00;;
68050;SDS011;54839;51.364;7.246;2023-05-18T13:52:59;4.63;;;2.43;;
68050;SDS011;54839;51.364;7.246;2023-05-18T13:55:25;6.50;;;2.67;;
68050;SDS011;54839;51.364;7.246;2023-05-18T13:57:51;4.70;;;2.97;;
68050;SDS011;54839;51.364;7.246;2023-05-18T14:00:16;6.30;;;2.73;;
68050;SDS011;54839;51.364;7.246;2023-05-18T14:02:44;5.60;;;3.13;;
68050;SDS011;54839;51.364;7.246;2023-05-18T14:05:11;6.40;;;2.73;;
68050;SDS011;54839;51.364;7.246;2023-05-18T14:07:37;7.13;;;3.33;;
68050;SDS011;54839;51.364;7.246;2023-05-18T14:10:04;8.00;;;3.10;;
68050;SDS011;54839;51.364;7.246;2023-05-18T14:12:31;6.90;;;3.17;;
68050;SDS011;54839;51.364;7.246;2023-05-18T14:14:57;6.00;;;2.63;;
68050;SDS011;54839;51.364;7.246;2023-05-18T14:17:23;5.77;;;2.70;;
68050;SDS011;54839;51.364;7.246;2023-05-18T14:19:49;6.37;;;2.73;;
68050;SDS011;54839;51.364;7.246;2023-05-18T14:22:14;9.63;;;2.53;;
68050;SDS011;54839;51.364;7.246;2023-05-18T14:24:41;7.07;;;2.77;;
68050;SDS011;54839;51.364;7.246;2023-05-18T14:27:06;4.30;;;2.90;;
68050;SDS011;54839;51.364;7.246;2023-05-18T14:29:32;7.80;;;3.20;;
68050;SDS011;54839;51.364;7.246;2023-05-18T14:31:58;3.93;;;2.33;;
68050;SDS011;54839;51.364;7.246;2023-05-18T14:34:24;11.30;;;2.90;;
68050;SDS011;54839;51.364;7.246;2023-05-18T14:36:50;7.33;;;3.10;;
68050;SDS011;54839;51.364;7.246;2023-05-18T14:39:16;6.50;;;2.30;;
68050;SDS011;54839;51.364;7.246;2023-05-18T14:41:42;7.87;;;3.40;;
68050;SDS011;54839;51.364;7.246;2023-05-18T14:44:07;7.87;;;2.90;;
68050;SDS011;54839;51.364;7.246;2023-05-18T14:46:34;7.20;;;2.80;;
68050;SDS011;54839;51.364;7.246;2023-05-18T14:49:00;5.67;;;3.00;;
68050;SDS011;54839;51.364;7.246;2023-05-18T14:51:25;6.97;;;3.10;;
68050;SDS011;54839;51.364;7.246;2023-05-18T14:53:51;5.70;;;2.43;;
68050;SDS011;54839;51.364;7.246;2023-05-18T14:56:16;6.73;;;3.00;;
68050;SDS011;54839;51.364;7.246;2023-05-18T14:58:42;5.50;;;2.30;;
68050;SDS011;54839;51.364;7.246;2023-05-18T15:01:08;9.50;;;2.47;;
68050;SDS011;54839;51.364;7.246;2023-05-18T15:03:33;8.03;;;2.70;;
68050;SDS011;54839;51.364;7.246;2023-05-18T15:05:59;6.00;;;3.07;;
68050;SDS011;54839;51.364;7.246;2023-05-18T15:08:25;9.10;;;2.67;;
68050;SDS011;54839;51.364;7.246;2023-05-18T15:10:51;11.73;;;2.97;;